Time;durP1;ratioP1;P1;durP2;ratioP2;P2;SDS_P1;SDS_P2;PMS_P1;PMS_P2;Temp;Humidity;BMP_temperature;BMP_pressure;BME280_temperature;BME280_humidity;BME280_pressure;Samples;Min_cycle;Max_cycle;Signal;HPM_P1;HPM_P2
2022/03/23 00:02:03;;;;;;;34.77;19.43;;;5.30;93.90;;;;;;5009812;28;20399;-51
2022/03/23 00:04:30;;;;;;;34.78;18.42;;;5.20;95.10;;;;;;5010481;28;20491;-52
2022/03/23 00:06:56;;;;;;;36.90;19.20;;;5.20;96.00;;;;;;5010389;28;20384;-52
2022/03/23 00:09:21;;;;;;;31.17;17.88;;;5.30;96.40;;;;;;5009400;28;20377;-52
2022/03/23 00:11:47;;;;;;;40.83;19.40;;;5.40;96.20;;;;;;5005454;28;20412;-52
2022/03/23 00:14:13;;;;;;;31.15;18.10;;;5.50;96.30;;;;;;4995749;28;20461;-52
2022/03/23 00:16:40;;;;;;;34.90;18.17;;;5.50;96.00;;;;;;5001413;28;20391;-52
2022/03/23 00:19:07;;;;;;;34.45;19.83;;;5.50;95.80;;;;;;4989876;28;20382;-52
2022/03/23 00:21:33;;;;;;;31.98;18.00;;;5.50;95.90;;;;;;4997523;28;20417;-52
2022/03/23 00:23:59;;;;;;;30.60;17.73;;;5.40;95.40;;;;;;5001479;28;20479;-52
2022/03/23 00:26:25;;;;;;;34.47;18.60;;;5.50;96.10;;;;;;4990676;28;20401;-51
2022/03/23 00:28:50;;;;;;;32.95;18.50;;;5.60;96.70;;;;;;4992237;28;20414;-52
2022/03/23 00:31:16;;;;;;;32.50;18.80;;;5.70;96.30;;;;;;4998186;28;20940;-52
2022/03/23 00:33:42;;;;;;;33.53;18.50;;;5.80;95.90;;;;;;4992401;28;20773;-52
2022/03/23 00:36:09;;;;;;;36.97;17.85;;;5.90;95.80;;;;;;5009100;28;20602;-52
2022/03/23 00:38:35;;;;;;;36.72;19.00;;;5.80;95.50;;;;;;5009910;28;20389;-52
2022/03/23 00:41:00;;;;;;;38.60;19.02;;;5.60;95.30;;;;;;5009822;28;20392;-52
2022/03/23 00:43:26;;;;;;;33.60;17.47;;;5.50;95.30;;;;;;5009568;28;20396;-52
2022/03/23 00:45:52;;;;;;;38.20;18.65;;;5.30;95.60;;;;;;5009759;28;20400;-52
2022/03/23 00:48:24;;;;;;;33.03;17.97;;;5.30;96.00;;;;;;5008445;28;20396;-52
2022/03/23 00:50:49;;;;;;;38.25;19.35;;;5.20;96.10;;;;;;5010025;28;20440;-52
2022/03/23 00:53:15;;;;;;;34.25;18.33;;;5.00;96.70;;;;;;5008926;28;20459;-52
2022/03/23 00:55:41;;;;;;;30.70;17.80;;;5.00;97.60;;;;;;5009608;28;20396;-52
2022/03/23 00:58:07;;;;;;;32.88;17.48;;;5.00;98.90;;;;;;5008904;28;20448;-52
2022/03/23 01:00:33;;;;;;;34.60;17.55;;;5.10;99.40;;;;;;5009539;28;20454;-52
2022/03/23 01:02:59;;;;;;;33.67;17.60;;;5.20;99.30;;;;;;5009738;28;20468;-52
2022/03/23 01:05:26;;;;;;;34.75;18.40;;;5.20;99.00;;;;;;5008968;28;20380;-52
2022/03/23 01:07:52;;;;;;;34.92;18.23;;;5.10;98.70;;;;;;5009572;28;20476;-52
2022/03/23 01:10:18;;;;;;;31.83;18.42;;;5.10;98.80;;;;;;5008892;28;20396;-52
2022/03/23 01:12:45;;;;;;;33.97;18.10;;;5.00;98.90;;;;;;5009271;28;20851;-52
2022/03/23 01:15:13;;;;;;;33.55;17.90;;;4.90;99.00;;;;;;5008669;28;20420;-52
2022/03/23 01:17:39;;;;;;;36.15;18.63;;;4.70;99.90;;;;;;4987979;28;20817;-52
2022/03/23 01:20:10;;;;;;;32.42;18.50;;;4.70;99.90;;;;;;4996193;28;20730;-51
2022/03/23 01:22:37;;;;;;;34.72;17.45;;;4.70;99.90;;;;;;5004658;28;20509;-51
2022/03/23 01:25:04;;;;;;;35.47;18.50;;;4.90;99.90;;;;;;5008525;28;20866;-51
2022/03/23 01:27:30;;;;;;;33.10;17.87;;;4.90;99.90;;;;;;5009499;28;20447;-51
2022/03/23 01:29:56;;;;;;;32.45;17.90;;;4.90;99.90;;;;;;5009597;28;20385;-52
2022/03/23 01:32:21;;;;;;;32.65;17.85;;;4.90;99.90;;;;;;5008558;28;20409;-52
2022/03/23 01:34:47;;;;;;;31.77;17.10;;;4.80;99.90;;;;;;5009283;28;20401;-52
2022/03/23 01:37:13;;;;;;;32.92;18.60;;;6.80;99.90;;;;;;5008684;28;20387;-52
2022/03/23 01:39:38;;;;;;;32.07;17.60;;;4.60;99.90;;;;;;5008883;28;20484;-52
2022/03/23 01:42:04;;;;;;;30.23;17.10;;;4.50;99.90;;;;;;5001484;28;20448;-52
2022/03/23 01:44:31;;;;;;;31.88;16.95;;;4.50;99.90;;;;;;4993885;28;20429;-52
2022/03/23 01:47:07;;;;;;;28.33;16.70;;;4.40;99.90;;;;;;5009302;28;20739;-52
2022/03/23 01:49:41;;;;;;;34.03;17.30;;;4.50;99.90;;;;;;5009095;28;20421;-52
2022/03/23 01:52:09;;;;;;;32.28;18.92;;;4.50;99.90;;;;;;5008538;28;20412;-52
2022/03/23 01:54:36;;;;;;;28.23;16.83;;;4.50;99.90;;;;;;5009121;28;20881;-52
2022/03/23 01:57:04;;;;;;;33.70;17.90;;;4.40;99.90;;;;;;5009070;28;20392;-51
2022/03/23 01:59:30;;;;;;;30.50;16.38;;;4.50;99.90;;;;;;5009390;28;20961;-52
2022/03/23 02:01:56;;;;;;;30.83;16.70;;;4.60;99.90;;;;;;5012515;28;20385;-52
2022/03/23 02:04:24;;;;;;;27.17;16.07;;;5.30;99.90;;;;;;5012041;28;20733;-52
2022/03/23 02:06:50;;;;;;;29.73;16.17;;;4.60;99.90;;;;;;5012453;28;20392;-52
2022/03/23 02:09:17;;;;;;;31.52;17.83;;;4.80;99.90;;;;;;4994019;28;20484;-52
2022/03/23 02:11:43;;;;;;;33.63;18.08;;;4.70;99.90;;;;;;5012095;28;20452;-53
2022/03/23 02:14:09;;;;;;;31.33;16.90;;;4.70;99.90;;;;;;5011631;28;20404;-52
2022/03/23 02:16:46;;;;;;;35.30;17.15;;;5.40;99.90;;;;;;5012151;28;20443;-52
2022/03/23 02:19:12;;;;;;;32.78;17.90;;;4.80;99.90;;;;;;5011297;28;20399;-52
2022/03/23 02:21:45;;;;;;;33.90;18.35;;;4.80;99.90;;;;;;5012221;28;20409;-52
2022/03/23 02:24:12;;;;;;;32.80;17.17;;;4.70;99.90;;;;;;5011441;28;20447;-52
2022/03/23 02:26:38;;;;;;;35.33;17.45;;;6.40;99.90;;;;;;5012070;28;20380;-53
2022/03/23 02:29:07;;;;;;;29.08;16.40;;;5.10;99.90;;;;;;5011486;28;21029;-52
2022/03/23 02:31:34;;;;;;;32.60;16.83;;;4.60;99.90;;;;;;4994694;28;20417;-53
2022/03/23 02:34:00;;;;;;;34.40;17.48;;;4.50;99.90;;;;;;5012186;28;20459;-52
2022/03/23 02:36:26;;;;;;;30.33;17.13;;;4.50;99.90;;;;;;5002174;28;20404;-53
2022/03/23 02:38:52;;;;;;;29.65;16.58;;;4.50;99.90;;;;;;5010180;28;20389;-53
2022/03/23 02:41:18;;;;;;;32.58;17.67;;;4.50;99.90;;;;;;5009944;28;20463;-52
2022/03/23 02:43:44;;;;;;;30.25;17.00;;;4.30;99.90;;;;;;5010459;28;20726;-53
2022/03/23 02:46:18;;;;;;;32.75;16.63;;;4.40;99.90;;;;;;5010730;28;20461;-52
2022/03/23 02:48:44;;;;;;;29.52;15.88;;;4.40;99.90;;;;;;5011253;28;20754;-53
2022/03/23 02:51:10;;;;;;;29.70;16.35;;;4.50;99.90;;;;;;5011385;28;20474;-52
2022/03/23 03:02:37;;;;;;;29.13;16.48;;;4.20;99.90;;;;;;5011563;28;20520;-53
2022/03/23 03:05:09;;;;;;;31.15;17.50;;;4.40;99.90;;;;;;5010976;28;20848;-52
2022/03/23 03:10:22;;;;;;;28.95;16.27;;;3.90;99.90;;;;;;5002640;28;20433;-53
2022/03/23 03:12:49;;;;;;;28.50;16.30;;;3.90;99.90;;;;;;5009882;28;20408;-52
2022/03/23 03:15:16;;;;;;;30.67;15.70;;;3.80;99.90;;;;;;5007325;28;20402;-52
2022/03/23 03:17:49;;;;;;;29.35;15.88;;;3.80;99.90;;;;;;4991622;28;20425;-53
2022/03/23 03:20:17;;;;;;;28.67;16.02;;;3.90;99.90;;;;;;4992831;28;20430;-52
2022/03/23 03:22:45;;;;;;;31.33;16.35;;;3.90;99.90;;;;;;5010453;28;20905;-53
2022/03/23 03:25:15;;;;;;;28.45;15.93;;;3.80;99.90;;;;;;5010614;28;20431;-52
2022/03/23 03:27:42;;;;;;;28.55;16.17;;;3.80;99.90;;;;;;5011150;28;20381;-53
2022/03/23 03:30:14;;;;;;;30.15;16.02;;;3.80;99.90;;;;;;4992107;28;20915;-52
2022/03/23 03:36:01;;;;;;;25.38;14.50;;;3.80;99.90;;;;;;5010997;28;20372;-52
2022/03/23 03:38:28;;;;;;;28.08;15.05;;;3.80;99.90;;;;;;5010544;28;20777;-52
2022/03/23 03:40:54;;;;;;;28.30;15.55;;;5.90;99.90;;;;;;4993228;28;20811;-53
2022/03/23 03:43:20;;;;;;;27.00;15.30;;;4.30;99.90;;;;;;5009778;28;20389;-52
2022/03/23 03:45:46;;;;;;;28.40;15.90;;;3.90;99.90;;;;;;5010752;28;20383;-53
2022/03/23 03:48:13;;;;;;;29.88;15.52;;;4.10;99.90;;;;;;5010069;28;20834;-52
2022/03/23 03:50:39;;;;;;;30.60;16.27;;;4.00;99.90;;;;;;5010687;28;20397;-52
2022/03/23 03:53:07;;;;;;;28.33;15.75;;;4.00;99.90;;;;;;5010119;28;20412;-52
2022/03/23 03:55:34;;;;;;;28.65;15.52;;;4.00;99.90;;;;;;5010389;28;20919;-52
2022/03/23 03:58:00;;;;;;;30.20;16.65;;;3.90;99.90;;;;;;5010307;28;20388;-53
2022/03/23 04:00:25;;;;;;;33.20;16.27;;;4.00;99.90;;;;;;5009925;28;20671;-52
2022/03/23 04:02:51;;;;;;;27.93;15.60;;;3.90;99.90;;;;;;5006327;28;20402;-52
2022/03/23 04:05:17;;;;;;;32.58;16.13;;;4.00;99.90;;;;;;5008427;28;20394;-52
2022/03/23 04:07:43;;;;;;;25.15;15.55;;;4.00;99.90;;;;;;4990855;28;20383;-53
2022/03/23 04:10:09;;;;;;;30.53;16.00;;;3.90;99.90;;;;;;4989673;28;20386;-52
2022/03/23 04:12:35;;;;;;;33.05;16.85;;;3.70;99.90;;;;;;4990636;28;20406;-52
2022/03/23 04:15:02;;;;;;;30.88;16.55;;;3.60;99.90;;;;;;4991431;28;20387;-53
2022/03/23 04:17:28;;;;;;;30.65;16.05;;;3.60;99.90;;;;;;5009391;28;20443;-53
2022/03/23 04:19:53;;;;;;;32.53;16.33;;;3.40;99.90;;;;;;5010129;28;20412;-53
2022/03/23 04:22:21;;;;;;;31.63;17.58;;;3.20;99.90;;;;;;5008527;28;20432;-53
2022/03/23 04:24:47;;;;;;;31.08;17.00;;;3.10;99.90;;;;;;5010136;28;20431;-53
2022/03/23 04:27:13;;;;;;;28.60;16.25;;;3.10;99.90;;;;;;5009379;28;20965;-53
2022/03/23 04:29:40;;;;;;;30.95;16.73;;;3.00;99.90;;;;;;5010380;28;20392;-53
2022/03/23 04:32:07;;;;;;;28.73;16.40;;;2.90;99.90;;;;;;5008867;28;20420;-53
2022/03/23 04:34:33;;;;;;;31.95;16.85;;;2.90;99.90;;;;;;5007208;28;20413;-53
2022/03/23 04:36:59;;;;;;;28.80;16.65;;;2.90;99.90;;;;;;5005590;28;20754;-53
2022/03/23 04:39:25;;;;;;;27.30;15.70;;;2.90;99.90;;;;;;5008221;28;20392;-53
2022/03/23 04:41:50;;;;;;;27.67;15.97;;;2.90;99.90;;;;;;4990902;28;20412;-53
2022/03/23 04:44:17;;;;;;;27.88;16.27;;;2.90;99.90;;;;;;4993837;28;20391;-52
2022/03/23 04:46:43;;;;;;;30.15;17.42;;;3.10;99.90;;;;;;4990579;28;20461;-53
2022/03/23 04:49:08;;;;;;;28.73;15.75;;;3.00;99.90;;;;;;4991779;28;20508;-52
2022/03/23 04:51:35;;;;;;;33.20;16.90;;;2.90;99.90;;;;;;5003792;28;21018;-53
2022/03/23 04:54:02;;;;;;;29.35;16.42;;;2.90;99.90;;;;;;5003525;28;20392;-53
2022/03/23 04:56:27;;;;;;;31.95;18.15;;;2.90;99.90;;;;;;5008637;28;20412;-53
2022/03/23 04:58:54;;;;;;;33.93;16.77;;;2.90;99.90;;;;;;5001977;28;20485;-54
2022/03/23 05:01:20;;;;;;;31.92;16.85;;;2.90;99.90;;;;;;5008688;28;20384;-53
2022/03/23 05:03:46;;;;;;;30.58;16.55;;;2.90;99.90;;;;;;5014738;28;20411;-53
2022/03/23 05:06:12;;;;;;;30.10;16.15;;;3.20;99.90;;;;;;5017774;28;20383;-53
2022/03/23 05:08:37;;;;;;;32.00;17.60;;;3.20;99.90;;;;;;5029453;28;20382;-54
2022/03/23 05:11:03;;;;;;;30.07;17.67;;;2.80;99.90;;;;;;5029662;28;20387;-53
2022/03/23 05:13:29;;;;;;;31.65;17.63;;;2.80;99.90;;;;;;5028523;28;20423;-54
2022/03/23 05:15:54;;;;;;;33.40;17.40;;;2.90;99.90;;;;;;5008831;28;20417;-53
2022/03/23 05:18:20;;;;;;;34.90;16.85;;;2.90;99.90;;;;;;4996634;28;20389;-53
2022/03/23 05:20:46;;;;;;;29.90;16.95;;;2.80;99.90;;;;;;5008840;28;20405;-53
2022/03/23 05:23:12;;;;;;;28.73;15.80;;;2.70;99.90;;;;;;5008759;28;20389;-53
2022/03/23 05:25:37;;;;;;;33.87;16.80;;;2.60;99.90;;;;;;5009427;28;20392;-53
2022/03/23 05:28:08;;;;;;;32.85;16.73;;;2.70;99.90;;;;;;5008462;28;20381;-53
2022/03/23 05:30:34;;;;;;;32.60;16.92;;;2.50;99.90;;;;;;5008352;28;20444;-53
2022/03/23 05:33:00;;;;;;;33.30;17.15;;;2.60;99.90;;;;;;5006392;28;21960;-53
2022/03/23 05:35:26;;;;;;;33.60;16.90;;;2.70;99.90;;;;;;4996977;28;20911;-53
2022/03/23 05:37:51;;;;;;;33.30;17.27;;;2.70;99.90;;;;;;4993365;28;20418;-53
2022/03/23 05:40:17;;;;;;;32.38;16.85;;;2.70;99.90;;;;;;5007415;28;20540;-53
2022/03/23 05:42:43;;;;;;;30.67;16.53;;;4.40;99.90;;;;;;5007724;28;20905;-53
2022/03/23 05:45:09;;;;;;;30.25;15.98;;;3.20;99.90;;;;;;5006325;28;20384;-53
2022/03/23 05:47:37;;;;;;;33.03;16.85;;;3.70;99.90;;;;;;5008403;28;20416;-53
2022/03/23 05:50:03;;;;;;;31.50;15.52;;;4.40;99.90;;;;;;5007131;28;20429;-51
2022/03/23 05:52:29;;;;;;;29.08;16.65;;;5.30;99.90;;;;;;5006848;28;20601;-51
2022/03/23 05:54:55;;;;;;;28.60;16.00;;;6.00;99.90;;;;;;5011926;28;20878;-51
2022/03/23 05:57:20;;;;;;;27.58;15.40;;;6.80;99.90;;;;;;5009928;28;20462;-53
2022/03/23 05:59:47;;;;;;;27.40;15.90;;;7.50;99.50;;;;;;5007711;28;20471;-53
2022/03/23 06:02:13;;;;;;;31.48;16.50;;;8.00;98.10;;;;;;5007858;28;20938;-53
2022/03/23 06:04:39;;;;;;;27.95;16.10;;;8.60;95.20;;;;;;5010234;28;20451;-53
2022/03/23 06:07:04;;;;;;;31.02;16.45;;;8.90;93.80;;;;;;5007584;28;20953;-54
2022/03/23 06:09:30;;;;;;;28.13;16.17;;;9.30;92.20;;;;;;5010013;28;20407;-53
2022/03/23 06:12:00;;;;;;;25.20;16.05;;;9.30;91.50;;;;;;5008654;28;20770;-52
2022/03/23 06:14:26;;;;;;;31.83;16.75;;;9.80;91.20;;;;;;5010489;28;20389;-53
2022/03/23 06:16:52;;;;;;;27.47;16.07;;;9.90;89.90;;;;;;4991364;28;20400;-53
2022/03/23 06:19:18;;;;;;;24.83;16.80;;;10.70;87.80;;;;;;5003429;28;20428;-52
2022/03/23 06:21:44;;;;;;;29.92;17.38;;;12.10;81.30;;;;;;5009986;28;20420;-53
2022/03/23 06:24:10;;;;;;;29.60;17.23;;;13.20;75.50;;;;;;5005979;28;20717;-53
2022/03/23 06:26:35;;;;;;;25.90;17.23;;;13.50;70.80;;;;;;5008421;28;20381;-53
2022/03/23 06:29:01;;;;;;;27.42;18.40;;;13.80;68.10;;;;;;5007572;28;20459;-53
2022/03/23 06:31:27;;;;;;;28.83;18.20;;;14.50;65.20;;;;;;5009336;28;20400;-53
2022/03/23 06:33:59;;;;;;;26.13;18.37;;;14.60;62.30;;;;;;5011873;28;20428;-53
2022/03/23 06:36:25;;;;;;;29.73;19.40;;;14.30;61.70;;;;;;5011041;28;20396;-53
2022/03/23 06:38:51;;;;;;;25.98;17.95;;;15.00;51.00;;;;;;5011078;28;20381;-53
2022/03/23 06:41:17;;;;;;;32.80;18.27;;;15.80;99.90;;;;;;5009743;28;20442;-53
2022/03/23 06:43:43;;;;;;;28.15;20.55;;;16.30;99.90;;;;;;4993722;28;20389;-53
2022/03/23 06:46:09;;;;;;;27.52;22.08;;;16.20;99.90;;;;;;5010106;28;20738;-53
2022/03/23 06:48:35;;;;;;;29.20;22.17;;;16.00;99.90;;;;;;5007851;28;20404;-53
2022/03/23 06:51:01;;;;;;;28.40;22.27;;;15.70;99.90;;;;;;5011114;28;20429;-53
2022/03/23 06:53:26;;;;;;;32.13;23.33;;;15.50;99.90;;;;;;4992791;28;20519;-53
2022/03/23 06:55:52;;;;;;;29.10;22.27;;;15.50;99.90;;;;;;5011462;28;20408;-53
2022/03/23 06:58:18;;;;;;;29.27;22.60;;;15.90;99.90;;;;;;5010951;28;20396;-54
2022/03/23 07:00:44;;;;;;;28.02;22.90;;;15.60;99.90;;;;;;5000947;28;20474;-53
2022/03/23 07:03:10;;;;;;;26.40;21.70;;;15.80;99.90;;;;;;5008909;28;20389;-54
2022/03/23 07:05:36;;;;;;;27.20;21.15;;;15.70;99.90;;;;;;5005151;28;20404;-53
2022/03/23 07:10:47;;;;;;;28.65;21.60;;;16.40;99.90;;;;;;5011358;28;20388;-51
2022/03/23 07:13:14;;;;;;;31.80;23.15;;;17.50;99.90;;;;;;5009402;28;20763;-51
2022/03/23 07:15:40;;;;;;;31.83;23.25;;;17.40;99.90;;;;;;4994004;28;20406;-52
2022/03/23 07:18:06;;;;;;;30.25;23.77;;;17.20;99.90;;;;;;5009442;28;20846;-51
2022/03/23 07:20:31;;;;;;;30.90;23.40;;;17.80;99.90;;;;;;5008702;28;20463;-51
2022/03/23 07:22:57;;;;;;;28.73;24.15;;;18.20;99.90;;;;;;5011003;28;20415;-51
2022/03/23 07:25:23;;;;;;;27.57;23.17;;;18.10;99.90;;;;;;5004118;28;20864;-51
2022/03/23 07:27:48;;;;;;;29.93;22.80;;;18.30;99.90;;;;;;4993005;28;20428;-52
2022/03/23 07:30:15;;;;;;;29.67;22.70;;;18.30;99.90;;;;;;5009620;28;20507;-52
2022/03/23 07:32:41;;;;;;;32.55;23.63;;;18.20;99.90;;;;;;4991052;28;20407;-52
2022/03/23 07:35:07;;;;;;;30.95;23.45;;;18.40;99.90;;;;;;4991499;28;20918;-52
2022/03/23 07:37:34;;;;;;;31.58;24.13;;;18.50;99.90;;;;;;4973182;28;20406;-52
2022/03/23 07:39:59;;;;;;;29.95;22.70;;;18.30;99.90;;;;;;5000986;28;20774;-52
2022/03/23 07:42:25;;;;;;;29.23;23.10;;;18.70;99.90;;;;;;5009411;28;20388;-52
2022/03/23 07:44:51;;;;;;;28.55;23.45;;;18.60;99.90;;;;;;4993118;28;20396;-53
2022/03/23 07:47:16;;;;;;;29.00;22.90;;;19.10;99.90;;;;;;5009684;28;20411;-53
2022/03/23 07:49:42;;;;;;;34.10;21.57;;;19.60;99.90;;;;;;5010104;28;20892;-53
2022/03/23 07:52:09;;;;;;;29.30;20.08;;;20.60;99.90;;;;;;4994221;28;20414;-53
2022/03/23 07:54:35;;;;;;;28.67;20.30;;;21.00;99.90;;;;;;4995926;28;20388;-53
2022/03/23 07:57:01;;;;;;;28.20;21.10;;;21.10;99.90;;;;;;5010456;28;20377;-53
2022/03/23 07:59:27;;;;;;;30.42;21.77;;;21.20;99.90;;;;;;5008258;28;20392;-53
2022/03/23 08:01:52;;;;;;;30.48;20.65;;;20.70;99.90;;;;;;5010902;28;20475;-53
2022/03/23 08:04:18;;;;;;;30.27;20.60;;;20.70;99.90;;;;;;5010023;28;20451;-53
2022/03/23 08:06:44;;;;;;;29.02;20.30;;;21.00;99.90;;;;;;5000906;28;20461;-53
2022/03/23 08:09:09;;;;;;;30.17;19.63;;;20.90;99.90;;;;;;4990413;28;20473;-53
2022/03/23 08:11:36;;;;;;;27.70;19.90;;;20.30;99.90;;;;;;4989990;28;20401;-53
2022/03/23 08:14:01;;;;;;;29.42;20.48;;;20.40;99.90;;;;;;5000570;28;20395;-54
2022/03/23 08:16:27;;;;;;;25.63;19.33;;;20.40;99.90;;;;;;4991993;28;20381;-53
2022/03/23 08:18:53;;;;;;;27.97;20.13;;;20.90;99.90;;;;;;5010334;28;20903;-53
2022/03/23 08:21:21;;;;;;;30.60;21.27;;;21.00;99.90;;;;;;5009087;28;20404;-53
2022/03/23 08:23:47;;;;;;;29.13;21.02;;;21.60;99.90;;;;;;5010417;28;20388;-54
2022/03/23 08:26:14;;;;;;;27.83;19.90;;;22.00;99.90;;;;;;5007933;28;20397;-53
2022/03/23 08:28:41;;;;;;;28.43;20.33;;;;;;;;;;5001846;28;20387;-53
2022/03/23 08:31:09;;;;;;;30.10;20.10;;;22.20;99.90;;;;;;5009605;28;20902;-54
2022/03/23 08:33:34;;;;;;;29.55;22.50;;;22.30;99.90;;;;;;5009089;28;20817;-53
2022/03/23 08:36:05;;;;;;;28.42;20.15;;;22.20;99.90;;;;;;5006047;28;20394;-54
2022/03/23 08:38:31;;;;;;;25.42;18.80;;;22.00;99.90;;;;;;5001468;28;20675;-55
2022/03/23 08:40:57;;;;;;;30.17;24.70;;;21.60;99.90;;;;;;4990156;28;20386;-55
2022/03/23 08:43:24;;;;;;;28.10;23.83;;;21.30;99.90;;;;;;5000572;28;20384;-56
2022/03/23 08:45:49;;;;;;;30.45;24.80;;;21.30;99.90;;;;;;5006342;28;20397;-54
2022/03/23 08:48:18;;;;;;;31.35;24.52;;;20.80;99.90;;;;;;5008923;28;20419;-54
2022/03/23 08:50:44;;;;;;;31.45;23.40;;;20.80;99.90;;;;;;5009832;28;21228;-53
2022/03/23 08:53:10;;;;;;;27.02;19.23;;;21.00;99.90;;;;;;5007969;28;20412;-55
2022/03/23 08:55:36;;;;;;;28.50;20.75;;;21.40;99.90;;;;;;5008208;28;20867;-57
2022/03/23 08:58:02;;;;;;;29.88;22.67;;;21.10;99.90;;;;;;5000426;28;20389;-55
2022/03/23 09:00:27;;;;;;;34.53;25.50;;;21.50;99.90;;;;;;4996032;28;20392;-55
2022/03/23 09:02:53;;;;;;;31.00;23.95;;;23.00;99.90;;;;;;4989676;28;20404;-54
2022/03/23 09:05:19;;;;;;;29.08;20.38;;;23.30;99.90;;;;;;4989337;28;20453;-53
2022/03/23 09:07:46;;;;;;;34.88;21.83;;;23.50;99.90;;;;;;4989985;28;20824;-53
2022/03/23 09:10:13;;;;;;;28.33;20.45;;;23.00;99.90;;;;;;5003455;28;20388;-55
2022/03/23 09:12:40;;;;;;;31.80;25.42;;;22.30;99.90;;;;;;4991551;28;20465;-55
2022/03/23 09:15:08;;;;;;;32.08;24.85;;;23.00;99.90;;;;;;5012410;28;20420;-55
2022/03/23 09:17:34;;;;;;;28.83;22.10;;;23.80;99.90;;;;;;5012403;28;20415;-54
2022/03/23 09:20:01;;;;;;;29.23;22.60;;;;;;;;;;5013307;28;21341;-53
2022/03/23 09:22:34;;;;;;;28.63;23.88;;;24.90;99.90;;;;;;5011733;28;20474;-53
2022/03/23 09:25:03;;;;;;;29.25;23.20;;;24.70;99.90;;;;;;5012951;28;20424;-53
2022/03/23 09:27:29;;;;;;;29.92;23.33;;;25.20;99.90;;;;;;5012252;28;20907;-53
2022/03/23 09:29:55;;;;;;;29.23;24.55;;;25.00;99.90;;;;;;5012349;28;20750;-53
2022/03/23 09:32:20;;;;;;;29.80;24.67;;;24.30;99.90;;;;;;5012002;28;20417;-53
2022/03/23 09:34:46;;;;;;;28.03;20.60;;;24.60;99.90;;;;;;5012531;28;20438;-53
2022/03/23 09:39:56;;;;;;;27.50;19.92;;;25.40;99.90;;;;;;4993371;28;20373;-53
2022/03/23 09:42:23;;;;;;;30.02;23.85;;;25.00;99.90;;;;;;4995964;28;20389;-53
2022/03/23 09:44:52;;;;;;;32.20;25.40;;;24.40;99.90;;;;;;4998283;28;20401;-53
2022/03/23 09:47:17;;;;;;;30.17;22.38;;;24.10;99.90;;;;;;4992502;28;20398;-53
2022/03/23 09:49:43;;;;;;;32.30;23.77;;;24.30;99.90;;;;;;4993728;28;20449;-53
2022/03/23 09:52:09;;;;;;;28.20;24.10;;;24.40;99.90;;;;;;4993307;28;20768;-53
2022/03/23 09:54:35;;;;;;;28.60;23.40;;;24.10;99.90;;;;;;4992251;28;20856;-53
2022/03/23 09:57:01;;;;;;;27.90;24.97;;;25.60;99.90;;;;;;4993197;28;20747;-55
2022/03/23 09:59:26;;;;;;;28.65;24.38;;;26.50;99.90;;;;;;4992458;28;20390;-55
2022/03/23 10:02:01;;;;;;;27.15;19.52;;;27.60;99.90;;;;;;4993241;28;20387;-54
2022/03/23 10:04:41;;;;;;;25.42;19.67;;;27.50;99.90;;;;;;4996516;28;20483;-55
2022/03/23 10:07:17;;;;;;;28.23;19.52;;;27.90;99.90;;;;;;5013114;28;20376;-55
2022/03/23 10:10:07;;;;;;;30.23;20.27;;;27.40;99.90;;;;;;5009604;28;20375;-56
2022/03/23 10:13:10;;;;;;;29.00;25.03;;;27.50;99.90;;;;;;4992107;28;20414;-54
2022/03/23 10:16:06;;;;;;;28.73;24.93;;;25.60;99.90;;;;;;5011091;28;20392;-53
2022/03/23 10:18:51;;;;;;;27.67;24.38;;;26.10;99.90;;;;;;5011666;28;20681;-54
2022/03/23 10:21:18;;;;;;;29.53;25.50;;;26.40;99.90;;;;;;5010281;28;20463;-53
2022/03/23 10:24:02;;;;;;;27.73;23.60;;;26.60;99.90;;;;;;5012180;28;20393;-54
2022/03/23 10:26:29;;;;;;;30.35;24.38;;;26.90;99.90;;;;;;5011467;28;20866;-53
2022/03/23 10:28:56;;;;;;;28.63;24.17;;;26.00;99.90;;;;;;5012252;28;20421;-53
2022/03/23 10:31:24;;;;;;;29.95;24.73;;;25.80;99.90;;;;;;5011665;28;20393;-54
2022/03/23 10:34:08;;;;;;;28.03;23.90;;;25.40;99.90;;;;;;5006185;28;20516;-54
2022/03/23 10:36:50;;;;;;;32.47;26.40;;;24.80;99.90;;;;;;5008381;28;20411;-53
2022/03/23 10:39:16;;;;;;;27.98;24.40;;;24.90;99.90;;;;;;5008533;28;20392;-53
2022/03/23 10:41:43;;;;;;;29.17;25.20;;;25.00;99.90;;;;;;5012182;28;20385;-54
2022/03/23 10:44:16;;;;;;;26.58;23.55;;;25.40;99.90;;;;;;5011787;28;20385;-53
2022/03/23 10:46:43;;;;;;;28.83;25.67;;;25.50;99.90;;;;;;5005340;28;20459;-53
2022/03/23 10:49:10;;;;;;;26.25;23.25;;;26.00;99.90;;;;;;5011459;28;20870;-56
2022/03/23 10:51:37;;;;;;;27.93;24.90;;;26.60;99.90;;;;;;5010956;28;20389;-55
2022/03/23 10:54:23;;;;;;;27.65;24.65;;;27.60;99.90;;;;;;5011341;28;20431;-56
2022/03/23 10:56:49;;;;;;;28.05;25.05;;;27.30;99.90;;;;;;4993150;28;20392;-56
2022/03/23 11:00:01;;;;;;;28.37;23.63;;;26.90;99.90;;;;;;5008696;28;20695;-55
2022/03/23 11:02:27;;;;;;;27.02;24.00;;;27.40;99.90;;;;;;5010027;28;20387;-55
2022/03/23 11:04:57;;;;;;;28.45;24.02;;;27.30;99.90;;;;;;5011235;28;20385;-56
2022/03/23 11:07:30;;;;;;;27.55;23.52;;;26.80;99.90;;;;;;5010603;28;20389;-55
2022/03/23 11:15:50;;;;;;;25.90;23.10;;;26.30;99.90;;;;;;4991225;28;20444;-54
2022/03/23 11:18:20;;;;;;;24.90;22.00;;;26.00;99.90;;;;;;4991279;28;20872;-53
2022/03/23 11:20:55;;;;;;;23.83;20.73;;;25.50;99.90;;;;;;4991649;28;20493;-54
2022/03/23 11:23:33;;;;;;;27.40;23.52;;;25.80;99.90;;;;;;4990895;28;20471;-54
2022/03/23 11:26:01;;;;;;;26.55;23.65;;;26.10;99.90;;;;;;4991598;28;20854;-54
2022/03/23 11:28:29;;;;;;;28.10;23.30;;;26.30;99.90;;;;;;4990819;28;20413;-54
2022/03/23 11:30:56;;;;;;;26.40;22.13;;;26.20;99.90;;;;;;4990588;28;20426;-54
2022/03/23 11:33:24;;;;;;;24.50;21.10;;;25.00;99.90;;;;;;4990174;28;20457;-54
2022/03/23 11:35:52;;;;;;;25.95;23.02;;;23.60;99.90;;;;;;4991293;28;20386;-54
2022/03/23 11:38:23;;;;;;;23.25;20.75;;;23.50;99.90;;;;;;4990739;28;20459;-54
2022/03/23 11:40:50;;;;;;;24.55;21.50;;;23.40;99.90;;;;;;4991184;28;20546;-54
2022/03/23 11:43:19;;;;;;;19.70;14.37;;;23.00;99.90;;;;;;4990724;28;20382;-54
2022/03/23 11:45:47;;;;;;;21.55;15.48;;;22.70;99.90;;;;;;4991379;28;20386;-54
2022/03/23 11:48:40;;;;;;;22.33;18.35;;;22.60;99.90;;;;;;4990917;28;20413;-54
2022/03/23 11:51:12;;;;;;;23.27;20.88;;;22.70;99.90;;;;;;4990916;28;20457;-54
2022/03/23 11:53:53;;;;;;;21.60;17.98;;;22.70;99.90;;;;;;4990419;28;20421;-54
2022/03/23 11:56:41;;;;;;;19.27;17.17;;;22.40;99.90;;;;;;4990250;28;20755;-54
2022/03/23 11:59:30;;;;;;;21.57;15.83;;;22.40;99.90;;;;;;4990641;28;20402;-54
2022/03/23 12:01:57;;;;;;;19.95;14.57;;;22.70;99.90;;;;;;4991164;28;20436;-54
2022/03/23 12:04:28;;;;;;;18.40;15.40;;;22.40;99.90;;;;;;4990014;28;20387;-54
2022/03/23 12:06:59;;;;;;;18.08;14.20;;;22.50;99.90;;;;;;4991401;28;20387;-54
2022/03/23 12:09:35;;;;;;;18.13;14.55;;;22.70;99.90;;;;;;4990259;28;20391;-54
2022/03/23 12:12:03;;;;;;;21.20;16.20;;;22.60;99.90;;;;;;4990746;28;20389;-54
2022/03/23 12:14:40;;;;;;;24.13;17.67;;;22.50;99.90;;;;;;5003097;28;20408;-54
2022/03/23 12:17:09;;;;;;;22.33;19.90;;;22.60;99.90;;;;;;5010294;28;20889;-56
2022/03/23 12:20:05;;;;;;;21.92;17.77;;;22.50;99.90;;;;;;5009510;28;20412;-54
2022/03/23 12:22:34;;;;;;;19.10;12.23;;;22.40;99.90;;;;;;5009148;28;20437;-54
2022/03/23 12:25:40;;;;;;;18.60;12.20;;;22.30;99.90;;;;;;5010410;28;20854;-54
2022/03/23 12:28:43;;;;;;;17.10;11.30;;;22.50;99.90;;;;;;5010133;28;20439;-54
2022/03/23 12:31:14;;;;;;;18.08;11.80;;;22.60;99.90;;;;;;5010358;28;20377;-54
2022/03/23 12:34:02;;;;;;;21.20;12.85;;;22.20;99.90;;;;;;5009271;28;20779;-54
2022/03/23 12:36:56;;;;;;;18.88;13.70;;;22.10;99.90;;;;;;5009388;28;20389;-54
2022/03/23 12:39:33;;;;;;;19.98;13.10;;;22.10;99.90;;;;;;5009198;28;20406;-54
2022/03/23 12:42:11;;;;;;;19.90;13.05;;;22.30;99.90;;;;;;5009993;28;20419;-54
2022/03/23 12:44:40;;;;;;;17.60;12.43;;;22.00;99.90;;;;;;5008455;28;20401;-54
2022/03/23 12:47:11;;;;;;;17.58;12.57;;;22.00;99.90;;;;;;4992571;28;20470;-55
2022/03/23 12:58:02;;;;;;;19.35;14.43;;;21.70;99.90;;;;;;5009868;28;20465;-54
2022/03/23 13:00:35;;;;;;;17.60;13.95;;;21.80;99.90;;;;;;5009151;28;20392;-54
2022/03/23 13:03:06;;;;;;;21.33;14.85;;;21.60;99.90;;;;;;5009642;28;20381;-55
2022/03/23 13:05:33;;;;;;;19.20;13.60;;;21.80;99.90;;;;;;5009000;28;20737;-56
2022/03/23 13:07:59;;;;;;;18.17;12.27;;;21.80;99.90;;;;;;5006886;28;20611;-54
2022/03/23 13:10:25;;;;;;;21.05;14.13;;;22.20;99.90;;;;;;4987512;28;20413;-55
2022/03/23 13:13:03;;;;;;;17.52;12.60;;;21.90;99.90;;;;;;4991267;28;20463;-53
2022/03/23 13:15:30;;;;;;;19.15;13.93;;;21.90;99.90;;;;;;5001762;28;20387;-52